sensor_id;sensor_type;location;lat;lon;timestamp;P1;durP1;ratioP1;P2;durP2;ratioP2
59390;SDS011;53405;57.012;40.984;2024-02-21T00:00:15;18.27;;;9.55;;
59390;SDS011;53405;57.012;40.984;2024-02-21T00:02:44;18.63;;;9.15;;
59390;SDS011;53405;57.012;40.984;2024-02-21T00:05:11;16.38;;;8.82;;
59390;SDS011;53405;57.012;40.984;2024-02-21T00:07:39;16.55;;;9.20;;
59390;SDS011;53405;57.012;40.984;2024-02-21T00:10:07;19.70;;;9.82;;
59390;SDS011;53405;57.012;40.984;2024-02-21T00:12:36;19.10;;;10.68;;
59390;SDS011;53405;57.012;40.984;2024-02-21T00:15:04;20.63;;;10.07;;
59390;SDS011;53405;57.012;40.984;2024-02-21T00:20:01;22.55;;;10.20;;
59390;SDS011;53405;57.012;40.984;2024-02-21T00:22:29;16.88;;;9.80;;
59390;SDS011;53405;57.012;40.984;2024-02-21T00:24:58;18.53;;;9.80;;
59390;SDS011;53405;57.012;40.984;2024-02-21T00:27:26;18.67;;;9.30;;
59390;SDS011;53405;57.012;40.984;2024-02-21T00:29:54;15.98;;;8.90;;
59390;SDS011;53405;57.012;40.984;2024-02-21T00:32:21;21.13;;;10.30;;
59390;SDS011;53405;57.012;40.984;2024-02-21T00:34:49;17.10;;;9.88;;
59390;SDS011;53405;57.012;40.984;2024-02-21T00:37:16;21.60;;;11.57;;
59390;SDS011;53405;57.012;40.984;2024-02-21T00:39:44;17.77;;;9.60;;
59390;SDS011;53405;57.012;40.984;2024-02-21T00:42:12;23.05;;;12.25;;
59390;SDS011;53405;57.012;40.984;2024-02-21T00:44:39;20.67;;;10.68;;
59390;SDS011;53405;57.012;40.984;2024-02-21T00:47:07;16.95;;;9.55;;
59390;SDS011;53405;57.012;40.984;2024-02-21T00:49:34;18.48;;;9.55;;
59390;SDS011;53405;57.012;40.984;2024-02-21T00:52:02;18.23;;;9.18;;
59390;SDS011;53405;57.012;40.984;2024-02-21T00:54:30;17.45;;;9.82;;
59390;SDS011;53405;57.012;40.984;2024-02-21T00:57:13;18.80;;;10.63;;
59390;SDS011;53405;57.012;40.984;2024-02-21T00:59:41;20.38;;;9.65;;
59390;SDS011;53405;57.012;40.984;2024-02-21T01:02:09;17.80;;;9.23;;
59390;SDS011;53405;57.012;40.984;2024-02-21T01:04:36;16.08;;;8.38;;
59390;SDS011;53405;57.012;40.984;2024-02-21T01:07:04;17.33;;;9.35;;
59390;SDS011;53405;57.012;40.984;2024-02-21T01:09:31;17.58;;;10.13;;
59390;SDS011;53405;57.012;40.984;2024-02-21T01:11:59;16.10;;;8.68;;
59390;SDS011;53405;57.012;40.984;2024-02-21T01:14:26;15.85;;;8.63;;
59390;SDS011;53405;57.012;40.984;2024-02-21T01:16:54;13.73;;;7.65;;
59390;SDS011;53405;57.012;40.984;2024-02-21T01:19:22;18.67;;;9.93;;
59390;SDS011;53405;57.012;40.984;2024-02-21T01:21:50;18.23;;;9.52;;
59390;SDS011;53405;57.012;40.984;2024-02-21T01:24:18;17.45;;;8.48;;
59390;SDS011;53405;57.012;40.984;2024-02-21T01:26:45;11.50;;;6.03;;
59390;SDS011;53405;57.012;40.984;2024-02-21T01:29:14;12.57;;;7.57;;
59390;SDS011;53405;57.012;40.984;2024-02-21T01:31:41;20.38;;;9.73;;
59390;SDS011;53405;57.012;40.984;2024-02-21T01:34:09;13.70;;;7.03;;
59390;SDS011;53405;57.012;40.984;2024-02-21T01:36:37;14.85;;;7.13;;
59390;SDS011;53405;57.012;40.984;2024-02-21T01:39:04;14.63;;;7.70;;
59390;SDS011;53405;57.012;40.984;2024-02-21T01:41:32;15.85;;;7.75;;
59390;SDS011;53405;57.012;40.984;2024-02-21T01:43:59;14.40;;;8.15;;
59390;SDS011;53405;57.012;40.984;2024-02-21T01:46:27;17.13;;;9.55;;
59390;SDS011;53405;57.012;40.984;2024-02-21T01:48:58;16.70;;;9.00;;
59390;SDS011;53405;57.012;40.984;2024-02-21T01:51:27;18.27;;;9.13;;
59390;SDS011;53405;57.012;40.984;2024-02-21T01:53:55;15.32;;;7.22;;
59390;SDS011;53405;57.012;40.984;2024-02-21T01:56:24;18.02;;;9.35;;
59390;SDS011;53405;57.012;40.984;2024-02-21T01:58:52;21.90;;;11.35;;
59390;SDS011;53405;57.012;40.984;2024-02-21T02:01:20;21.58;;;11.23;;
59390;SDS011;53405;57.012;40.984;2024-02-21T02:03:49;23.77;;;11.63;;
59390;SDS011;53405;57.012;40.984;2024-02-21T02:06:16;19.58;;;10.88;;
59390;SDS011;53405;57.012;40.984;2024-02-21T02:08:44;17.33;;;10.00;;
59390;SDS011;53405;57.012;40.984;2024-02-21T02:11:15;19.83;;;9.88;;
59390;SDS011;53405;57.012;40.984;2024-02-21T02:13:43;17.98;;;9.05;;
59390;SDS011;53405;57.012;40.984;2024-02-21T02:16:11;19.00;;;10.38;;
59390;SDS011;53405;57.012;40.984;2024-02-21T02:18:39;19.92;;;10.85;;
59390;SDS011;53405;57.012;40.984;2024-02-21T02:21:09;19.52;;;10.05;;
59390;SDS011;53405;57.012;40.984;2024-02-21T02:23:41;16.10;;;9.75;;
59390;SDS011;53405;57.012;40.984;2024-02-21T02:26:09;18.27;;;9.65;;
59390;SDS011;53405;57.012;40.984;2024-02-21T02:28:37;18.75;;;10.43;;
59390;SDS011;53405;57.012;40.984;2024-02-21T02:31:05;19.35;;;9.68;;
59390;SDS011;53405;57.012;40.984;2024-02-21T02:33:33;19.52;;;10.45;;
59390;SDS011;53405;57.012;40.984;2024-02-21T02:36:00;19.40;;;10.93;;
59390;SDS011;53405;57.012;40.984;2024-02-21T02:38:28;18.88;;;9.20;;
59390;SDS011;53405;57.012;40.984;2024-02-21T02:40:56;16.27;;;9.10;;
59390;SDS011;53405;57.012;40.984;2024-02-21T02:43:23;14.30;;;7.80;;
59390;SDS011;53405;57.012;40.984;2024-02-21T02:45:51;17.02;;;9.80;;
59390;SDS011;53405;57.012;40.984;2024-02-21T02:48:19;17.75;;;9.45;;
59390;SDS011;53405;57.012;40.984;2024-02-21T02:50:47;16.52;;;9.23;;
59390;SDS011;53405;57.012;40.984;2024-02-21T02:53:16;13.52;;;7.43;;
59390;SDS011;53405;57.012;40.984;2024-02-21T02:55:44;16.05;;;9.00;;
59390;SDS011;53405;57.012;40.984;2024-02-21T02:58:11;13.80;;;8.48;;
59390;SDS011;53405;57.012;40.984;2024-02-21T03:00:39;17.23;;;9.20;;
59390;SDS011;53405;57.012;40.984;2024-02-21T03:03:07;15.82;;;8.32;;
59390;SDS011;53405;57.012;40.984;2024-02-21T03:05:35;14.30;;;8.25;;
59390;SDS011;53405;57.012;40.984;2024-02-21T03:08:03;12.73;;;6.80;;
59390;SDS011;53405;57.012;40.984;2024-02-21T03:10:34;12.55;;;7.13;;
59390;SDS011;53405;57.012;40.984;2024-02-21T03:13:02;14.20;;;8.18;;
59390;SDS011;53405;57.012;40.984;2024-02-21T03:15:30;14.68;;;8.00;;
59390;SDS011;53405;57.012;40.984;2024-02-21T03:17:58;16.67;;;8.40;;
59390;SDS011;53405;57.012;40.984;2024-02-21T03:20:26;15.65;;;8.10;;
59390;SDS011;53405;57.012;40.984;2024-02-21T03:22:54;15.40;;;7.97;;
59390;SDS011;53405;57.012;40.984;2024-02-21T03:25:22;14.95;;;8.55;;
59390;SDS011;53405;57.012;40.984;2024-02-21T03:27:49;18.23;;;8.98;;
59390;SDS011;53405;57.012;40.984;2024-02-21T03:30:16;17.77;;;7.82;;
59390;SDS011;53405;57.012;40.984;2024-02-21T03:32:44;9.77;;;5.57;;
59390;SDS011;53405;57.012;40.984;2024-02-21T03:35:12;15.50;;;8.10;;
59390;SDS011;53405;57.012;40.984;2024-02-21T03:37:40;13.27;;;7.20;;
59390;SDS011;53405;57.012;40.984;2024-02-21T03:40:08;9.35;;;5.47;;
59390;SDS011;53405;57.012;40.984;2024-02-21T03:42:37;15.48;;;8.50;;
59390;SDS011;53405;57.012;40.984;2024-02-21T03:45:05;7.90;;;3.92;;
59390;SDS011;53405;57.012;40.984;2024-02-21T03:47:33;10.75;;;5.85;;
59390;SDS011;53405;57.012;40.984;2024-02-21T03:50:01;14.52;;;6.55;;
59390;SDS011;53405;57.012;40.984;2024-02-21T03:52:29;16.15;;;8.38;;
59390;SDS011;53405;57.012;40.984;2024-02-21T03:54:56;13.88;;;8.20;;
59390;SDS011;53405;57.012;40.984;2024-02-21T03:57:24;8.98;;;4.95;;
59390;SDS011;53405;57.012;40.984;2024-02-21T03:59:51;15.15;;;7.50;;
59390;SDS011;53405;57.012;40.984;2024-02-21T04:02:19;13.73;;;7.63;;
59390;SDS011;53405;57.012;40.984;2024-02-21T04:04:48;11.52;;;6.07;;
59390;SDS011;53405;57.012;40.984;2024-02-21T04:07:16;15.15;;;7.88;;
59390;SDS011;53405;57.012;40.984;2024-02-21T04:09:44;14.55;;;5.88;;
59390;SDS011;53405;57.012;40.984;2024-02-21T04:12:11;10.20;;;6.05;;
59390;SDS011;53405;57.012;40.984;2024-02-21T04:14:39;14.80;;;7.40;;
59390;SDS011;53405;57.012;40.984;2024-02-21T04:17:10;11.02;;;6.18;;
59390;SDS011;53405;57.012;40.984;2024-02-21T04:19:38;9.38;;;5.78;;
59390;SDS011;53405;57.012;40.984;2024-02-21T04:22:05;10.02;;;5.72;;
59390;SDS011;53405;57.012;40.984;2024-02-21T04:24:33;12.68;;;5.40;;
59390;SDS011;53405;57.012;40.984;2024-02-21T04:27:01;11.02;;;5.82;;
59390;SDS011;53405;57.012;40.984;2024-02-21T04:29:28;10.82;;;5.45;;
59390;SDS011;53405;57.012;40.984;2024-02-21T04:31:56;14.38;;;6.28;;
59390;SDS011;53405;57.012;40.984;2024-02-21T04:34:24;11.63;;;6.75;;
59390;SDS011;53405;57.012;40.984;2024-02-21T04:36:52;12.73;;;6.30;;
59390;SDS011;53405;57.012;40.984;2024-02-21T04:39:19;14.43;;;6.85;;
59390;SDS011;53405;57.012;40.984;2024-02-21T04:41:47;10.18;;;6.00;;
59390;SDS011;53405;57.012;40.984;2024-02-21T04:44:14;13.43;;;7.32;;
59390;SDS011;53405;57.012;40.984;2024-02-21T04:46:43;12.02;;;7.35;;
59390;SDS011;53405;57.012;40.984;2024-02-21T04:49:11;13.70;;;8.02;;
59390;SDS011;53405;57.012;40.984;2024-02-21T04:51:41;14.75;;;7.47;;
59390;SDS011;53405;57.012;40.984;2024-02-21T04:54:08;15.15;;;7.43;;
59390;SDS011;53405;57.012;40.984;2024-02-21T04:56:36;16.40;;;7.90;;
59390;SDS011;53405;57.012;40.984;2024-02-21T04:59:04;11.93;;;7.07;;
59390;SDS011;53405;57.012;40.984;2024-02-21T05:01:31;14.18;;;7.38;;
59390;SDS011;53405;57.012;40.984;2024-02-21T05:03:59;13.63;;;7.40;;
59390;SDS011;53405;57.012;40.984;2024-02-21T05:06:26;13.73;;;7.82;;
59390;SDS011;53405;57.012;40.984;2024-02-21T05:08:54;14.32;;;8.27;;
59390;SDS011;53405;57.012;40.984;2024-02-21T05:11:22;17.70;;;9.38;;
59390;SDS011;53405;57.012;40.984;2024-02-21T05:13:50;12.88;;;7.70;;
59390;SDS011;53405;57.012;40.984;2024-02-21T05:16:18;15.20;;;8.20;;
59390;SDS011;53405;57.012;40.984;2024-02-21T05:18:46;14.55;;;8.25;;
59390;SDS011;53405;57.012;40.984;2024-02-21T05:21:14;19.75;;;8.70;;
59390;SDS011;53405;57.012;40.984;2024-02-21T05:23:42;10.20;;;6.00;;
59390;SDS011;53405;57.012;40.984;2024-02-21T05:26:09;16.88;;;8.55;;
59390;SDS011;53405;57.012;40.984;2024-02-21T05:28:37;15.38;;;9.05;;
59390;SDS011;53405;57.012;40.984;2024-02-21T05:31:05;16.83;;;9.02;;
59390;SDS011;53405;57.012;40.984;2024-02-21T05:33:32;15.27;;;7.60;;
59390;SDS011;53405;57.012;40.984;2024-02-21T05:36:00;16.23;;;8.70;;
59390;SDS011;53405;57.012;40.984;2024-02-21T05:38:28;16.42;;;7.68;;
59390;SDS011;53405;57.012;40.984;2024-02-21T05:40:55;14.10;;;7.72;;
59390;SDS011;53405;57.012;40.984;2024-02-21T05:43:24;12.10;;;6.57;;
59390;SDS011;53405;57.012;40.984;2024-02-21T05:45:52;17.75;;;9.00;;
59390;SDS011;53405;57.012;40.984;2024-02-21T05:48:20;14.43;;;7.32;;
59390;SDS011;53405;57.012;40.984;2024-02-21T05:50:49;18.65;;;9.02;;
59390;SDS011;53405;57.012;40.984;2024-02-21T05:53:17;19.48;;;8.73;;
59390;SDS011;53405;57.012;40.984;2024-02-21T05:55:44;14.55;;;7.72;;
59390;SDS011;53405;57.012;40.984;2024-02-21T05:58:12;14.75;;;7.70;;
59390;SDS011;53405;57.012;40.984;2024-02-21T06:00:41;16.40;;;9.27;;
59390;SDS011;53405;57.012;40.984;2024-02-21T06:03:08;14.85;;;8.50;;
59390;SDS011;53405;57.012;40.984;2024-02-21T06:05:36;12.18;;;5.70;;
59390;SDS011;53405;57.012;40.984;2024-02-21T06:08:06;14.93;;;7.70;;
59390;SDS011;53405;57.012;40.984;2024-02-21T06:10:34;13.98;;;7.57;;
59390;SDS011;53405;57.012;40.984;2024-02-21T06:13:01;9.65;;;4.82;;
59390;SDS011;53405;57.012;40.984;2024-02-21T06:15:29;11.30;;;5.75;;
59390;SDS011;53405;57.012;40.984;2024-02-21T06:17:57;5.78;;;3.20;;
59390;SDS011;53405;57.012;40.984;2024-02-21T06:20:25;9.57;;;5.57;;
59390;SDS011;53405;57.012;40.984;2024-02-21T06:22:53;10.82;;;6.40;;
59390;SDS011;53405;57.012;40.984;2024-02-21T06:25:21;11.93;;;6.75;;
59390;SDS011;53405;57.012;40.984;2024-02-21T06:27:49;12.80;;;5.78;;
59390;SDS011;53405;57.012;40.984;2024-02-21T06:30:17;10.98;;;5.97;;
59390;SDS011;53405;57.012;40.984;2024-02-21T06:32:45;11.23;;;6.10;;
59390;SDS011;53405;57.012;40.984;2024-02-21T06:35:12;12.43;;;6.40;;
59390;SDS011;53405;57.012;40.984;2024-02-21T06:37:40;7.25;;;3.72;;
59390;SDS011;53405;57.012;40.984;2024-02-21T06:40:08;11.55;;;6.30;;
59390;SDS011;53405;57.012;40.984;2024-02-21T06:42:36;11.75;;;6.43;;
59390;SDS011;53405;57.012;40.984;2024-02-21T06:45:04;9.63;;;5.47;;
59390;SDS011;53405;57.012;40.984;2024-02-21T06:50:01;12.13;;;6.25;;
59390;SDS011;53405;57.012;40.984;2024-02-21T06:52:30;11.95;;;5.65;;
59390;SDS011;53405;57.012;40.984;2024-02-21T06:54:58;10.45;;;6.15;;
59390;SDS011;53405;57.012;40.984;2024-02-21T06:57:26;14.00;;;7.00;;
59390;SDS011;53405;57.012;40.984;2024-02-21T06:59:53;9.93;;;5.38;;
59390;SDS011;53405;57.012;40.984;2024-02-21T07:02:21;12.02;;;6.00;;
59390;SDS011;53405;57.012;40.984;2024-02-21T07:04:49;11.88;;;6.75;;
59390;SDS011;53405;57.012;40.984;2024-02-21T07:07:17;14.13;;;7.07;;
59390;SDS011;53405;57.012;40.984;2024-02-21T07:09:45;12.10;;;7.20;;
59390;SDS011;53405;57.012;40.984;2024-02-21T07:12:15;12.05;;;5.45;;
59390;SDS011;53405;57.012;40.984;2024-02-21T07:14:44;15.77;;;7.60;;
59390;SDS011;53405;57.012;40.984;2024-02-21T07:17:12;11.48;;;6.78;;
59390;SDS011;53405;57.012;40.984;2024-02-21T07:19:40;12.48;;;7.20;;
59390;SDS011;53405;57.012;40.984;2024-02-21T07:22:07;11.90;;;6.47;;
59390;SDS011;53405;57.012;40.984;2024-02-21T07:24:37;11.38;;;7.00;;
59390;SDS011;53405;57.012;40.984;2024-02-21T07:27:04;9.68;;;6.10;;
59390;SDS011;53405;57.012;40.984;2024-02-21T07:29:32;12.02;;;7.68;;
59390;SDS011;53405;57.012;40.984;2024-02-21T07:32:00;12.93;;;7.45;;
59390;SDS011;53405;57.012;40.984;2024-02-21T07:34:28;16.63;;;7.57;;
59390;SDS011;53405;57.012;40.984;2024-02-21T07:36:56;11.23;;;6.38;;
59390;SDS011;53405;57.012;40.984;2024-02-21T07:39:24;11.07;;;5.93;;
59390;SDS011;53405;57.012;40.984;2024-02-21T07:41:52;12.48;;;6.93;;
59390;SDS011;53405;57.012;40.984;2024-02-21T07:44:20;16.27;;;7.90;;
59390;SDS011;53405;57.012;40.984;2024-02-21T07:46:48;13.07;;;7.30;;
59390;SDS011;53405;57.012;40.984;2024-02-21T07:49:15;13.88;;;7.97;;
59390;SDS011;53405;57.012;40.984;2024-02-21T07:51:43;10.85;;;6.32;;
59390;SDS011;53405;57.012;40.984;2024-02-21T07:54:11;13.48;;;8.02;;
59390;SDS011;53405;57.012;40.984;2024-02-21T07:56:42;14.55;;;7.93;;
59390;SDS011;53405;57.012;40.984;2024-02-21T07:59:10;12.27;;;7.75;;
59390;SDS011;53405;57.012;40.984;2024-02-21T08:01:38;12.32;;;6.95;;
59390;SDS011;53405;57.012;40.984;2024-02-21T08:04:06;12.80;;;7.00;;
59390;SDS011;53405;57.012;40.984;2024-02-21T08:06:34;12.63;;;7.35;;
59390;SDS011;53405;57.012;40.984;2024-02-21T08:09:02;12.48;;;6.60;;
59390;SDS011;53405;57.012;40.984;2024-02-21T08:11:29;12.65;;;7.72;;
59390;SDS011;53405;57.012;40.984;2024-02-21T08:13:57;12.00;;;6.88;;
59390;SDS011;53405;57.012;40.984;2024-02-21T08:16:26;14.20;;;7.88;;
59390;SDS011;53405;57.012;40.984;2024-02-21T08:18:54;10.20;;;6.28;;
59390;SDS011;53405;57.012;40.984;2024-02-21T08:21:21;13.65;;;8.35;;
59390;SDS011;53405;57.012;40.984;2024-02-21T08:23:49;10.63;;;6.28;;
59390;SDS011;53405;57.012;40.984;2024-02-21T08:26:18;10.70;;;6.40;;
59390;SDS011;53405;57.012;40.984;2024-02-21T08:28:46;13.18;;;6.75;;
59390;SDS011;53405;57.012;40.984;2024-02-21T08:31:20;11.38;;;6.13;;
59390;SDS011;53405;57.012;40.984;2024-02-21T08:33:48;11.77;;;6.75;;
59390;SDS011;53405;57.012;40.984;2024-02-21T08:36:18;13.30;;;6.97;;
59390;SDS011;53405;57.012;40.984;2024-02-21T08:38:46;14.80;;;8.20;;
59390;SDS011;53405;57.012;40.984;2024-02-21T08:41:14;23.58;;;7.88;;
59390;SDS011;53405;57.012;40.984;2024-02-21T08:43:42;13.90;;;7.22;;
59390;SDS011;53405;57.012;40.984;2024-02-21T08:46:09;10.57;;;5.45;;
59390;SDS011;53405;57.012;40.984;2024-02-21T08:48:37;10.45;;;6.80;;
59390;SDS011;53405;57.012;40.984;2024-02-21T08:51:04;9.20;;;5.35;;
59390;SDS011;53405;57.012;40.984;2024-02-21T08:53:32;9.35;;;5.05;;
59390;SDS011;53405;57.012;40.984;2024-02-21T08:56:00;9.10;;;5.78;;
59390;SDS011;53405;57.012;40.984;2024-02-21T08:58:28;10.50;;;6.25;;
59390;SDS011;53405;57.012;40.984;2024-02-21T09:00:57;11.38;;;6.13;;
59390;SDS011;53405;57.012;40.984;2024-02-21T09:03:24;12.75;;;7.22;;
59390;SDS011;53405;57.012;40.984;2024-02-21T09:05:52;14.25;;;7.60;;
59390;SDS011;53405;57.012;40.984;2024-02-21T09:08:20;12.82;;;7.75;;
59390;SDS011;53405;57.012;40.984;2024-02-21T09:10:48;9.60;;;5.65;;
59390;SDS011;53405;57.012;40.984;2024-02-21T09:13:16;11.73;;;6.72;;
59390;SDS011;53405;57.012;40.984;2024-02-21T09:15:43;14.70;;;7.35;;
59390;SDS011;53405;57.012;40.984;2024-02-21T09:18:11;12.02;;;7.40;;
59390;SDS011;53405;57.012;40.984;2024-02-21T09:20:39;11.63;;;6.93;;
59390;SDS011;53405;57.012;40.984;2024-02-21T09:23:07;13.88;;;9.02;;
59390;SDS011;53405;57.012;40.984;2024-02-21T09:25:35;14.57;;;8.07;;
59390;SDS011;53405;57.012;40.984;2024-02-21T09:28:03;12.52;;;7.65;;
59390;SDS011;53405;57.012;40.984;2024-02-21T09:30:33;12.20;;;7.50;;
59390;SDS011;53405;57.012;40.984;2024-02-21T09:33:01;13.05;;;6.95;;
59390;SDS011;53405;57.012;40.984;2024-02-21T09:35:30;12.38;;;7.43;;
59390;SDS011;53405;57.012;40.984;2024-02-21T09:38:01;10.80;;;6.88;;
59390;SDS011;53405;57.012;40.984;2024-02-21T09:40:30;11.50;;;7.22;;
59390;SDS011;53405;57.012;40.984;2024-02-21T09:43:02;13.73;;;7.20;;
59390;SDS011;53405;57.012;40.984;2024-02-21T09:45:34;14.32;;;8.25;;
59390;SDS011;53405;57.012;40.984;2024-02-21T09:50:41;11.52;;;7.13;;
59390;SDS011;53405;57.012;40.984;2024-02-21T09:53:14;11.93;;;7.13;;
59390;SDS011;53405;57.012;40.984;2024-02-21T09:55:42;11.63;;;7.05;;
59390;SDS011;53405;57.012;40.984;2024-02-21T09:58:11;12.43;;;7.03;;
59390;SDS011;53405;57.012;40.984;2024-02-21T10:00:39;13.15;;;7.40;;
59390;SDS011;53405;57.012;40.984;2024-02-21T10:03:06;12.35;;;7.13;;
59390;SDS011;53405;57.012;40.984;2024-02-21T10:05:37;9.55;;;6.00;;
59390;SDS011;53405;57.012;40.984;2024-02-21T10:08:06;12.48;;;6.97;;
59390;SDS011;53405;57.012;40.984;2024-02-21T10:10:44;10.45;;;5.95;;
59390;SDS011;53405;57.012;40.984;2024-02-21T10:13:23;9.88;;;5.55;;
59390;SDS011;53405;57.012;40.984;2024-02-21T10:18:35;10.48;;;5.90;;
59390;SDS011;53405;57.012;40.984;2024-02-21T10:21:06;11.43;;;6.57;;
59390;SDS011;53405;57.012;40.984;2024-02-21T10:23:45;10.50;;;5.47;;
59390;SDS011;53405;57.012;40.984;2024-02-21T10:26:13;10.75;;;6.03;;
59390;SDS011;53405;57.012;40.984;2024-02-21T10:28:41;11.73;;;7.22;;
59390;SDS011;53405;57.012;40.984;2024-02-21T10:31:20;13.10;;;6.88;;
59390;SDS011;53405;57.012;40.984;2024-02-21T10:33:56;9.43;;;5.93;;
59390;SDS011;53405;57.012;40.984;2024-02-21T10:36:33;11.23;;;7.25;;
59390;SDS011;53405;57.012;40.984;2024-02-21T10:39:01;14.18;;;7.20;;
59390;SDS011;53405;57.012;40.984;2024-02-21T10:41:29;13.13;;;6.95;;
59390;SDS011;53405;57.012;40.984;2024-02-21T10:43:58;11.48;;;7.45;;
59390;SDS011;53405;57.012;40.984;2024-02-21T10:46:32;11.63;;;6.72;;
59390;SDS011;53405;57.012;40.984;2024-02-21T10:49:10;12.80;;;7.90;;
59390;SDS011;53405;57.012;40.984;2024-02-21T10:51:42;12.02;;;7.50;;
59390;SDS011;53405;57.012;40.984;2024-02-21T10:54:13;11.23;;;6.38;;
59390;SDS011;53405;57.012;40.984;2024-02-21T10:56:53;11.20;;;6.40;;
59390;SDS011;53405;57.012;40.984;2024-02-21T10:59:25;13.82;;;7.45;;
59390;SDS011;53405;57.012;40.984;2024-02-21T11:01:54;11.77;;;6.60;;
59390;SDS011;53405;57.012;40.984;2024-02-21T11:04:25;12.15;;;6.20;;
59390;SDS011;53405;57.012;40.984;2024-02-21T11:06:54;10.98;;;6.85;;
59390;SDS011;53405;57.012;40.984;2024-02-21T11:09:32;12.98;;;6.15;;
59390;SDS011;53405;57.012;40.984;2024-02-21T11:12:04;12.68;;;7.13;;
59390;SDS011;53405;57.012;40.984;2024-02-21T11:14:33;13.45;;;7.03;;
59390;SDS011;53405;57.012;40.984;2024-02-21T11:17:14;11.68;;;6.30;;
59390;SDS011;53405;57.012;40.984;2024-02-21T11:19:46;13.60;;;7.53;;
59390;SDS011;53405;57.012;40.984;2024-02-21T11:22:16;11.77;;;7.55;;
59390;SDS011;53405;57.012;40.984;2024-02-21T11:24:50;10.63;;;7.15;;
59390;SDS011;53405;57.012;40.984;2024-02-21T11:27:22;12.32;;;7.10;;
59390;SDS011;53405;57.012;40.984;2024-02-21T11:29:54;13.32;;;8.68;;
59390;SDS011;53405;57.012;40.984;2024-02-21T11:32:24;10.77;;;6.57;;
59390;SDS011;53405;57.012;40.984;2024-02-21T11:35:02;11.88;;;7.00;;
59390;SDS011;53405;57.012;40.984;2024-02-21T11:37:36;15.30;;;8.65;;
59390;SDS011;53405;57.012;40.984;2024-02-21T11:40:08;11.32;;;7.30;;
59390;SDS011;53405;57.012;40.984;2024-02-21T11:42:39;13.38;;;8.15;;
59390;SDS011;53405;57.012;40.984;2024-02-21T11:45:08;12.48;;;7.47;;
59390;SDS011;53405;57.012;40.984;2024-02-21T11:47:37;12.50;;;7.30;;
59390;SDS011;53405;57.012;40.984;2024-02-21T11:50:10;11.07;;;6.80;;
59390;SDS011;53405;57.012;40.984;2024-02-21T11:55:07;11.27;;;6.88;;
59390;SDS011;53405;57.012;40.984;2024-02-21T11:57:37;11.93;;;6.85;;
59390;SDS011;53405;57.012;40.984;2024-02-21T12:00:13;11.50;;;6.82;;
59390;SDS011;53405;57.012;40.984;2024-02-21T12:02:45;14.13;;;7.47;;
59390;SDS011;53405;57.012;40.984;2024-02-21T12:05:14;13.87;;;7.30;;
59390;SDS011;53405;57.012;40.984;2024-02-21T12:07:42;12.07;;;7.05;;
59390;SDS011;53405;57.012;40.984;2024-02-21T12:10:11;11.27;;;7.07;;
59390;SDS011;53405;57.012;40.984;2024-02-21T12:12:40;16.83;;;9.63;;
59390;SDS011;53405;57.012;40.984;2024-02-21T12:15:08;14.20;;;8.40;;
59390;SDS011;53405;57.012;40.984;2024-02-21T12:17:37;14.77;;;7.53;;
59390;SDS011;53405;57.012;40.984;2024-02-21T12:20:06;13.13;;;7.70;;
59390;SDS011;53405;57.012;40.984;2024-02-21T12:22:41;13.93;;;7.68;;
59390;SDS011;53405;57.012;40.984;2024-02-21T12:27:48;11.85;;;6.82;;
59390;SDS011;53405;57.012;40.984;2024-02-21T12:30:17;12.63;;;6.80;;
59390;SDS011;53405;57.012;40.984;2024-02-21T12:32:46;10.20;;;5.80;;
59390;SDS011;53405;57.012;40.984;2024-02-21T12:35:15;12.43;;;7.10;;
59390;SDS011;53405;57.012;40.984;2024-02-21T12:37:45;11.27;;;7.10;;
59390;SDS011;53405;57.012;40.984;2024-02-21T12:40:12;11.35;;;7.20;;
59390;SDS011;53405;57.012;40.984;2024-02-21T12:42:42;11.48;;;5.28;;
59390;SDS011;53405;57.012;40.984;2024-02-21T12:45:09;11.07;;;6.63;;
59390;SDS011;53405;57.012;40.984;2024-02-21T12:47:37;12.32;;;6.32;;
59390;SDS011;53405;57.012;40.984;2024-02-21T12:50:06;13.13;;;6.83;;
59390;SDS011;53405;57.012;40.984;2024-02-21T12:52:34;9.65;;;4.88;;
59390;SDS011;53405;57.012;40.984;2024-02-21T12:55:02;10.07;;;6.00;;
59390;SDS011;53405;57.012;40.984;2024-02-21T12:57:30;11.02;;;6.80;;
59390;SDS011;53405;57.012;40.984;2024-02-21T12:59:58;11.93;;;7.10;;
59390;SDS011;53405;57.012;40.984;2024-02-21T13:02:26;12.35;;;6.85;;
59390;SDS011;53405;57.012;40.984;2024-02-21T13:04:54;12.63;;;6.85;;
59390;SDS011;53405;57.012;40.984;2024-02-21T13:07:22;10.38;;;6.28;;
59390;SDS011;53405;57.012;40.984;2024-02-21T13:09:49;9.93;;;5.63;;
59390;SDS011;53405;57.012;40.984;2024-02-21T13:12:17;12.27;;;6.82;;
59390;SDS011;53405;57.012;40.984;2024-02-21T13:14:45;11.70;;;6.85;;
59390;SDS011;53405;57.012;40.984;2024-02-21T13:17:13;10.93;;;6.45;;
59390;SDS011;53405;57.012;40.984;2024-02-21T13:19:42;11.63;;;7.05;;
59390;SDS011;53405;57.012;40.984;2024-02-21T13:22:10;12.45;;;7.00;;
59390;SDS011;53405;57.012;40.984;2024-02-21T13:24:38;12.38;;;7.20;;
59390;SDS011;53405;57.012;40.984;2024-02-21T13:27:06;10.63;;;6.72;;
59390;SDS011;53405;57.012;40.984;2024-02-21T13:29:34;9.27;;;5.65;;
59390;SDS011;53405;57.012;40.984;2024-02-21T13:32:01;12.55;;;7.72;;
59390;SDS011;53405;57.012;40.984;2024-02-21T13:34:29;12.38;;;7.05;;
59390;SDS011;53405;57.012;40.984;2024-02-21T13:36:57;13.35;;;7.78;;
59390;SDS011;53405;57.012;40.984;2024-02-21T13:39:26;13.43;;;6.95;;
59390;SDS011;53405;57.012;40.984;2024-02-21T13:41:54;10.13;;;6.10;;
59390;SDS011;53405;57.012;40.984;2024-02-21T13:44:21;11.57;;;6.50;;
59390;SDS011;53405;57.012;40.984;2024-02-21T13:46:49;13.90;;;6.93;;
59390;SDS011;53405;57.012;40.984;2024-02-21T13:49:17;11.00;;;6.53;;
59390;SDS011;53405;57.012;40.984;2024-02-21T13:51:45;11.50;;;6.70;;
59390;SDS011;53405;57.012;40.984;2024-02-21T13:54:12;12.27;;;7.03;;
59390;SDS011;53405;57.012;40.984;2024-02-21T13:56:44;12.18;;;7.53;;
59390;SDS011;53405;57.012;40.984;2024-02-21T13:59:15;11.57;;;6.68;;
59390;SDS011;53405;57.012;40.984;2024-02-21T14:01:43;11.93;;;7.03;;
59390;SDS011;53405;57.012;40.984;2024-02-21T14:04:11;12.80;;;7.78;;
59390;SDS011;53405;57.012;40.984;2024-02-21T14:06:39;12.40;;;7.65;;
59390;SDS011;53405;57.012;40.984;2024-02-21T14:09:11;24.30;;;13.43;;
59390;SDS011;53405;57.012;40.984;2024-02-21T14:11:39;10.90;;;6.95;;
59390;SDS011;53405;57.012;40.984;2024-02-21T14:14:09;13.05;;;8.30;;
59390;SDS011;53405;57.012;40.984;2024-02-21T14:16:37;15.40;;;8.82;;
59390;SDS011;53405;57.012;40.984;2024-02-21T14:19:07;11.68;;;7.30;;
59390;SDS011;53405;57.012;40.984;2024-02-21T14:21:36;10.50;;;7.25;;
59390;SDS011;53405;57.012;40.984;2024-02-21T14:24:04;28.67;;;14.50;;
59390;SDS011;53405;57.012;40.984;2024-02-21T14:26:32;13.48;;;8.55;;
59390;SDS011;53405;57.012;40.984;2024-02-21T14:29:01;21.35;;;11.23;;
59390;SDS011;53405;57.012;40.984;2024-02-21T14:31:33;19.67;;;11.00;;
59390;SDS011;53405;57.012;40.984;2024-02-21T14:34:01;14.38;;;6.88;;
59390;SDS011;53405;57.012;40.984;2024-02-21T14:36:30;12.18;;;6.68;;
59390;SDS011;53405;57.012;40.984;2024-02-21T14:38:58;10.63;;;6.88;;
59390;SDS011;53405;57.012;40.984;2024-02-21T14:41:26;14.40;;;7.60;;
59390;SDS011;53405;57.012;40.984;2024-02-21T14:43:55;14.60;;;7.60;;